sensor_id;sensor_type;location;lat;lon;timestamp;temperature;humidity
40932;DHT22;36257;46.052;12.540;2024-03-22T00:00:17;12.00;95.30
40932;DHT22;36257;46.052;12.540;2024-03-22T00:02:43;12.00;95.80
40932;DHT22;36257;46.052;12.540;2024-03-22T00:05:08;11.90;96.60
40932;DHT22;36257;46.052;12.540;2024-03-22T00:07:34;11.70;97.10
40932;DHT22;36257;46.052;12.540;2024-03-22T00:10:00;11.60;97.20
40932;DHT22;36257;46.052;12.540;2024-03-22T00:12:26;11.60;97.30
40932;DHT22;36257;46.052;12.540;2024-03-22T00:14:52;11.50;97.50
40932;DHT22;36257;46.052;12.540;2024-03-22T00:17:20;11.50;97.50
40932;DHT22;36257;46.052;12.540;2024-03-22T00:19:46;11.50;97.50
40932;DHT22;36257;46.052;12.540;2024-03-22T00:22:11;11.40;97.30
40932;DHT22;36257;46.052;12.540;2024-03-22T00:24:37;11.40;96.70
40932;DHT22;36257;46.052;12.540;2024-03-22T00:27:03;11.40;96.30
40932;DHT22;36257;46.052;12.540;2024-03-22T00:29:28;11.40;96.60
40932;DHT22;36257;46.052;12.540;2024-03-22T00:31:54;11.50;96.60
40932;DHT22;36257;46.052;12.540;2024-03-22T00:34:20;11.50;96.40
40932;DHT22;36257;46.052;12.540;2024-03-22T00:36:46;11.40;96.50
40932;DHT22;36257;46.052;12.540;2024-03-22T00:39:12;11.40;96.20
40932;DHT22;36257;46.052;12.540;2024-03-22T00:41:38;11.40;96.30
40932;DHT22;36257;46.052;12.540;2024-03-22T00:44:04;11.40;96.10
40932;DHT22;36257;46.052;12.540;2024-03-22T00:46:30;11.50;96.00
40932;DHT22;36257;46.052;12.540;2024-03-22T00:48:56;11.50;95.90
40932;DHT22;36257;46.052;12.540;2024-03-22T00:51:24;11.60;95.80
40932;DHT22;36257;46.052;12.540;2024-03-22T00:53:50;11.50;95.50
40932;DHT22;36257;46.052;12.540;2024-03-22T00:56:16;11.50;95.60
40932;DHT22;36257;46.052;12.540;2024-03-22T00:58:41;11.50;96.00
40932;DHT22;36257;46.052;12.540;2024-03-22T01:01:07;11.50;96.00
40932;DHT22;36257;46.052;12.540;2024-03-22T01:03:32;11.40;95.90
40932;DHT22;36257;46.052;12.540;2024-03-22T01:05:58;11.40;95.40
40932;DHT22;36257;46.052;12.540;2024-03-22T01:08:24;11.40;95.70
40932;DHT22;36257;46.052;12.540;2024-03-22T01:10:49;11.40;95.20
40932;DHT22;36257;46.052;12.540;2024-03-22T01:13:16;11.40;95.40
40932;DHT22;36257;46.052;12.540;2024-03-22T01:15:44;11.30;95.30
40932;DHT22;36257;46.052;12.540;2024-03-22T01:18:11;11.30;95.20
40932;DHT22;36257;46.052;12.540;2024-03-22T01:20:37;11.30;95.40
40932;DHT22;36257;46.052;12.540;2024-03-22T01:23:04;11.20;95.50
40932;DHT22;36257;46.052;12.540;2024-03-22T01:25:30;11.20;95.30
40932;DHT22;36257;46.052;12.540;2024-03-22T01:27:56;11.20;94.20
40932;DHT22;36257;46.052;12.540;2024-03-22T01:30:22;11.30;92.50
40932;DHT22;36257;46.052;12.540;2024-03-22T01:32:48;11.50;91.70
40932;DHT22;36257;46.052;12.540;2024-03-22T01:35:14;11.60;91.40
40932;DHT22;36257;46.052;12.540;2024-03-22T01:37:41;11.70;93.10
40932;DHT22;36257;46.052;12.540;2024-03-22T01:40:08;11.70;94.10
40932;DHT22;36257;46.052;12.540;2024-03-22T01:42:34;11.60;94.90
40932;DHT22;36257;46.052;12.540;2024-03-22T01:44:59;11.50;95.50
40932;DHT22;36257;46.052;12.540;2024-03-22T01:47:25;11.40;95.80
40932;DHT22;36257;46.052;12.540;2024-03-22T01:49:53;11.20;96.00
40932;DHT22;36257;46.052;12.540;2024-03-22T01:52:20;11.10;96.00
40932;DHT22;36257;46.052;12.540;2024-03-22T01:54:46;11.00;96.20
40932;DHT22;36257;46.052;12.540;2024-03-22T01:57:11;11.00;96.10
40932;DHT22;36257;46.052;12.540;2024-03-22T01:59:38;11.00;95.90
40932;DHT22;36257;46.052;12.540;2024-03-22T02:02:04;11.00;96.20
40932;DHT22;36257;46.052;12.540;2024-03-22T02:04:30;11.00;96.10
40932;DHT22;36257;46.052;12.540;2024-03-22T02:06:56;10.90;96.20
40932;DHT22;36257;46.052;12.540;2024-03-22T02:09:22;10.80;95.90
40932;DHT22;36257;46.052;12.540;2024-03-22T02:11:49;10.80;95.10
40932;DHT22;36257;46.052;12.540;2024-03-22T02:14:15;10.80;94.80
40932;DHT22;36257;46.052;12.540;2024-03-22T02:16:41;10.80;94.90
40932;DHT22;36257;46.052;12.540;2024-03-22T02:19:07;10.90;94.90
40932;DHT22;36257;46.052;12.540;2024-03-22T02:21:33;10.90;95.10
40932;DHT22;36257;46.052;12.540;2024-03-22T02:23:58;10.90;95.60
40932;DHT22;36257;46.052;12.540;2024-03-22T02:26:24;10.90;95.70
40932;DHT22;36257;46.052;12.540;2024-03-22T02:28:50;10.80;95.60
40932;DHT22;36257;46.052;12.540;2024-03-22T02:31:15;10.70;95.20
40932;DHT22;36257;46.052;12.540;2024-03-22T02:33:41;10.70;95.50
40932;DHT22;36257;46.052;12.540;2024-03-22T02:36:07;10.60;96.30
40932;DHT22;36257;46.052;12.540;2024-03-22T02:38:32;10.50;96.40
40932;DHT22;36257;46.052;12.540;2024-03-22T02:40:58;10.40;95.90
40932;DHT22;36257;46.052;12.540;2024-03-22T02:43:24;10.50;94.40
40932;DHT22;36257;46.052;12.540;2024-03-22T02:45:50;10.60;94.30
40932;DHT22;36257;46.052;12.540;2024-03-22T02:48:16;10.70;93.90
40932;DHT22;36257;46.052;12.540;2024-03-22T02:50:41;10.80;94.80
40932;DHT22;36257;46.052;12.540;2024-03-22T02:53:07;10.70;96.20
40932;DHT22;36257;46.052;12.540;2024-03-22T02:55:39;10.60;96.90
40932;DHT22;36257;46.052;12.540;2024-03-22T02:58:06;10.50;96.70
40932;DHT22;36257;46.052;12.540;2024-03-22T03:00:35;10.40;96.50
40932;DHT22;36257;46.052;12.540;2024-03-22T03:03:01;10.20;96.60
40932;DHT22;36257;46.052;12.540;2024-03-22T03:05:27;10.10;97.50
40932;DHT22;36257;46.052;12.540;2024-03-22T03:07:52;10.00;97.80
40932;DHT22;36257;46.052;12.540;2024-03-22T03:10:18;10.00;96.70
40932;DHT22;36257;46.052;12.540;2024-03-22T03:12:43;10.00;96.50
40932;DHT22;36257;46.052;12.540;2024-03-22T03:15:09;10.00;97.10
40932;DHT22;36257;46.052;12.540;2024-03-22T03:17:35;10.10;96.60
40932;DHT22;36257;46.052;12.540;2024-03-22T03:20:00;10.10;96.70
40932;DHT22;36257;46.052;12.540;2024-03-22T03:22:26;10.10;97.20
40932;DHT22;36257;46.052;12.540;2024-03-22T03:24:52;10.10;97.20
40932;DHT22;36257;46.052;12.540;2024-03-22T03:27:17;10.10;97.30
40932;DHT22;36257;46.052;12.540;2024-03-22T03:29:43;10.00;97.90
40932;DHT22;36257;46.052;12.540;2024-03-22T03:32:08;9.80;97.90
40932;DHT22;36257;46.052;12.540;2024-03-22T03:34:34;9.80;97.50
40932;DHT22;36257;46.052;12.540;2024-03-22T03:37:00;9.80;97.20
40932;DHT22;36257;46.052;12.540;2024-03-22T03:39:27;9.80;97.00
40932;DHT22;36257;46.052;12.540;2024-03-22T03:41:54;9.80;97.20
40932;DHT22;36257;46.052;12.540;2024-03-22T03:44:20;9.80;96.80
40932;DHT22;36257;46.052;12.540;2024-03-22T03:46:46;9.70;97.40
40932;DHT22;36257;46.052;12.540;2024-03-22T03:49:11;9.70;97.80
40932;DHT22;36257;46.052;12.540;2024-03-22T03:51:37;9.60;98.10
40932;DHT22;36257;46.052;12.540;2024-03-22T03:54:03;9.50;98.50
40932;DHT22;36257;46.052;12.540;2024-03-22T03:56:29;9.50;98.40
40932;DHT22;36257;46.052;12.540;2024-03-22T03:58:55;9.50;97.70
40932;DHT22;36257;46.052;12.540;2024-03-22T04:01:21;9.60;96.90
40932;DHT22;36257;46.052;12.540;2024-03-22T04:03:48;9.50;97.10
40932;DHT22;36257;46.052;12.540;2024-03-22T04:06:14;9.40;97.10
40932;DHT22;36257;46.052;12.540;2024-03-22T04:08:40;9.40;97.10
40932;DHT22;36257;46.052;12.540;2024-03-22T04:11:05;9.50;96.40
40932;DHT22;36257;46.052;12.540;2024-03-22T04:13:31;9.50;95.20
40932;DHT22;36257;46.052;12.540;2024-03-22T04:15:59;9.50;93.40
40932;DHT22;36257;46.052;12.540;2024-03-22T04:18:24;9.60;92.60
40932;DHT22;36257;46.052;12.540;2024-03-22T04:20:56;9.80;93.00
40932;DHT22;36257;46.052;12.540;2024-03-22T04:23:23;9.80;92.80
40932;DHT22;36257;46.052;12.540;2024-03-22T04:26:07;9.90;91.20
40932;DHT22;36257;46.052;12.540;2024-03-22T04:28:33;10.00;90.80
40932;DHT22;36257;46.052;12.540;2024-03-22T04:31:07;10.10;91.00
40932;DHT22;36257;46.052;12.540;2024-03-22T04:33:36;10.10;90.90
40932;DHT22;36257;46.052;12.540;2024-03-22T04:36:03;10.20;90.50
40932;DHT22;36257;46.052;12.540;2024-03-22T04:38:29;10.20;90.10
40932;DHT22;36257;46.052;12.540;2024-03-22T04:40:56;10.20;90.30
40932;DHT22;36257;46.052;12.540;2024-03-22T04:43:26;10.20;89.90
40932;DHT22;36257;46.052;12.540;2024-03-22T04:45:53;10.30;89.70
40932;DHT22;36257;46.052;12.540;2024-03-22T04:48:22;10.30;88.80
40932;DHT22;36257;46.052;12.540;2024-03-22T04:50:49;10.40;87.30
40932;DHT22;36257;46.052;12.540;2024-03-22T04:53:17;10.50;86.00
40932;DHT22;36257;46.052;12.540;2024-03-22T04:55:53;10.70;84.70
40932;DHT22;36257;46.052;12.540;2024-03-22T04:58:25;10.80;84.00
40932;DHT22;36257;46.052;12.540;2024-03-22T05:01:03;11.00;84.10
40932;DHT22;36257;46.052;12.540;2024-03-22T05:03:29;11.00;84.20
40932;DHT22;36257;46.052;12.540;2024-03-22T05:05:56;11.10;85.10
40932;DHT22;36257;46.052;12.540;2024-03-22T05:08:24;11.10;85.60
40932;DHT22;36257;46.052;12.540;2024-03-22T05:10:49;11.10;84.80
40932;DHT22;36257;46.052;12.540;2024-03-22T05:13:15;11.10;83.40
40932;DHT22;36257;46.052;12.540;2024-03-22T05:15:40;11.30;81.30
40932;DHT22;36257;46.052;12.540;2024-03-22T05:18:06;11.50;80.90
40932;DHT22;36257;46.052;12.540;2024-03-22T05:20:32;11.60;80.50
40932;DHT22;36257;46.052;12.540;2024-03-22T05:22:58;11.70;81.30
40932;DHT22;36257;46.052;12.540;2024-03-22T05:25:24;11.70;82.40
40932;DHT22;36257;46.052;12.540;2024-03-22T05:27:49;11.60;83.20
40932;DHT22;36257;46.052;12.540;2024-03-22T05:30:15;11.50;83.90
40932;DHT22;36257;46.052;12.540;2024-03-22T05:32:41;11.40;85.20
40932;DHT22;36257;46.052;12.540;2024-03-22T05:35:06;11.30;86.30
40932;DHT22;36257;46.052;12.540;2024-03-22T05:37:32;11.10;86.70
40932;DHT22;36257;46.052;12.540;2024-03-22T05:39:59;10.90;87.60
40932;DHT22;36257;46.052;12.540;2024-03-22T05:42:25;10.90;88.60
40932;DHT22;36257;46.052;12.540;2024-03-22T05:44:51;10.80;89.30
40932;DHT22;36257;46.052;12.540;2024-03-22T05:47:18;10.70;89.80
40932;DHT22;36257;46.052;12.540;2024-03-22T05:49:44;10.60;89.60
40932;DHT22;36257;46.052;12.540;2024-03-22T05:52:09;10.70;89.70
40932;DHT22;36257;46.052;12.540;2024-03-22T05:54:35;10.70;89.90
40932;DHT22;36257;46.052;12.540;2024-03-22T05:57:01;10.60;90.00
40932;DHT22;36257;46.052;12.540;2024-03-22T05:59:27;10.70;89.50
40932;DHT22;36257;46.052;12.540;2024-03-22T06:01:53;10.70;91.00
40932;DHT22;36257;46.052;12.540;2024-03-22T06:04:18;10.80;91.80
40932;DHT22;36257;46.052;12.540;2024-03-22T06:06:44;11.00;92.00
40932;DHT22;36257;46.052;12.540;2024-03-22T06:09:09;11.00;92.80
40932;DHT22;36257;46.052;12.540;2024-03-22T06:11:37;10.90;93.40
40932;DHT22;36257;46.052;12.540;2024-03-22T06:14:02;10.90;93.60
40932;DHT22;36257;46.052;12.540;2024-03-22T06:16:28;11.00;92.50
40932;DHT22;36257;46.052;12.540;2024-03-22T06:18:53;11.20;90.50
40932;DHT22;36257;46.052;12.540;2024-03-22T06:21:19;11.50;89.80
40932;DHT22;36257;46.052;12.540;2024-03-22T06:23:50;11.70;91.40
40932;DHT22;36257;46.052;12.540;2024-03-22T06:26:16;11.90;91.30
40932;DHT22;36257;46.052;12.540;2024-03-22T06:28:41;12.00;91.40
40932;DHT22;36257;46.052;12.540;2024-03-22T06:31:07;12.20;91.80
40932;DHT22;36257;46.052;12.540;2024-03-22T06:33:33;12.40;91.20
40932;DHT22;36257;46.052;12.540;2024-03-22T06:35:59;12.60;90.30
40932;DHT22;36257;46.052;12.540;2024-03-22T06:38:25;12.70;90.80
40932;DHT22;36257;46.052;12.540;2024-03-22T06:40:51;12.80;91.10
40932;DHT22;36257;46.052;12.540;2024-03-22T06:43:16;13.00;92.10
40932;DHT22;36257;46.052;12.540;2024-03-22T06:45:42;13.30;89.20
40932;DHT22;36257;46.052;12.540;2024-03-22T06:48:07;13.60;88.50
40932;DHT22;36257;46.052;12.540;2024-03-22T06:50:33;13.90;87.40
40932;DHT22;36257;46.052;12.540;2024-03-22T06:52:58;14.20;87.90
40932;DHT22;36257;46.052;12.540;2024-03-22T06:55:24;14.50;88.30
40932;DHT22;36257;46.052;12.540;2024-03-22T06:57:50;14.80;87.90
40932;DHT22;36257;46.052;12.540;2024-03-22T07:00:17;15.10;85.60
40932;DHT22;36257;46.052;12.540;2024-03-22T07:02:44;15.40;83.80
40932;DHT22;36257;46.052;12.540;2024-03-22T07:05:10;15.60;83.00
40932;DHT22;36257;46.052;12.540;2024-03-22T07:07:37;15.80;82.40
40932;DHT22;36257;46.052;12.540;2024-03-22T07:10:03;15.90;82.40
40932;DHT22;36257;46.052;12.540;2024-03-22T07:12:29;16.00;82.30
40932;DHT22;36257;46.052;12.540;2024-03-22T07:14:59;16.20;84.40
40932;DHT22;36257;46.052;12.540;2024-03-22T07:17:25;16.30;84.00
40932;DHT22;36257;46.052;12.540;2024-03-22T07:19:51;16.50;83.30
40932;DHT22;36257;46.052;12.540;2024-03-22T07:22:17;16.70;84.10
40932;DHT22;36257;46.052;12.540;2024-03-22T07:24:43;16.90;83.50
40932;DHT22;36257;46.052;12.540;2024-03-22T07:27:09;17.20;83.20
40932;DHT22;36257;46.052;12.540;2024-03-22T07:29:35;17.30;83.20
40932;DHT22;36257;46.052;12.540;2024-03-22T07:32:00;17.40;83.50
40932;DHT22;36257;46.052;12.540;2024-03-22T07:34:26;17.60;82.50
40932;DHT22;36257;46.052;12.540;2024-03-22T07:36:51;17.70;82.30
40932;DHT22;36257;46.052;12.540;2024-03-22T07:39:17;17.90;82.20
40932;DHT22;36257;46.052;12.540;2024-03-22T07:41:43;18.10;82.60
40932;DHT22;36257;46.052;12.540;2024-03-22T07:44:08;18.20;82.00
40932;DHT22;36257;46.052;12.540;2024-03-22T07:46:34;18.40;82.60
40932;DHT22;36257;46.052;12.540;2024-03-22T07:48:59;18.50;81.60
40932;DHT22;36257;46.052;12.540;2024-03-22T07:51:25;18.70;80.90
40932;DHT22;36257;46.052;12.540;2024-03-22T07:53:51;18.80;79.60
40932;DHT22;36257;46.052;12.540;2024-03-22T07:56:17;18.80;80.50
40932;DHT22;36257;46.052;12.540;2024-03-22T07:58:44;18.90;81.20
40932;DHT22;36257;46.052;12.540;2024-03-22T08:01:09;18.90;80.50
40932;DHT22;36257;46.052;12.540;2024-03-22T08:03:35;19.00;81.70
40932;DHT22;36257;46.052;12.540;2024-03-22T08:06:01;19.10;81.80
40932;DHT22;36257;46.052;12.540;2024-03-22T08:08:27;19.10;80.80
40932;DHT22;36257;46.052;12.540;2024-03-22T08:10:52;19.20;80.90
40932;DHT22;36257;46.052;12.540;2024-03-22T08:13:18;19.30;82.10
40932;DHT22;36257;46.052;12.540;2024-03-22T08:15:44;19.30;80.50
40932;DHT22;36257;46.052;12.540;2024-03-22T08:18:11;19.30;81.20
40932;DHT22;36257;46.052;12.540;2024-03-22T08:20:36;19.40;82.00
40932;DHT22;36257;46.052;12.540;2024-03-22T08:23:04;19.60;81.20
40932;DHT22;36257;46.052;12.540;2024-03-22T08:25:30;19.90;81.10
40932;DHT22;36257;46.052;12.540;2024-03-22T08:27:56;20.20;80.80
40932;DHT22;36257;46.052;12.540;2024-03-22T08:30:22;20.40;80.20
40932;DHT22;36257;46.052;12.540;2024-03-22T08:32:47;20.40;78.50
40932;DHT22;36257;46.052;12.540;2024-03-22T08:35:13;20.50;78.00
40932;DHT22;36257;46.052;12.540;2024-03-22T08:37:39;20.50;77.20
40932;DHT22;36257;46.052;12.540;2024-03-22T08:40:05;20.50;77.10
40932;DHT22;36257;46.052;12.540;2024-03-22T08:42:30;20.70;79.10
40932;DHT22;36257;46.052;12.540;2024-03-22T08:44:56;20.80;79.50
40932;DHT22;36257;46.052;12.540;2024-03-22T08:47:22;21.10;79.40
40932;DHT22;36257;46.052;12.540;2024-03-22T08:49:48;21.40;76.90
40932;DHT22;36257;46.052;12.540;2024-03-22T08:52:14;21.60;77.40
40932;DHT22;36257;46.052;12.540;2024-03-22T08:54:40;21.80;76.40
40932;DHT22;36257;46.052;12.540;2024-03-22T08:57:06;21.80;75.10
40932;DHT22;36257;46.052;12.540;2024-03-22T08:59:31;21.90;73.60
40932;DHT22;36257;46.052;12.540;2024-03-22T09:01:57;21.90;73.30
40932;DHT22;36257;46.052;12.540;2024-03-22T09:04:23;22.10;74.80
40932;DHT22;36257;46.052;12.540;2024-03-22T09:06:48;22.30;74.90
40932;DHT22;36257;46.052;12.540;2024-03-22T09:09:14;22.30;73.40
40932;DHT22;36257;46.052;12.540;2024-03-22T09:11:39;22.50;72.60
40932;DHT22;36257;46.052;12.540;2024-03-22T09:14:05;22.50;72.20
40932;DHT22;36257;46.052;12.540;2024-03-22T09:16:30;22.70;74.00
40932;DHT22;36257;46.052;12.540;2024-03-22T09:18:56;22.60;73.20
40932;DHT22;36257;46.052;12.540;2024-03-22T09:21:22;22.70;74.00
40932;DHT22;36257;46.052;12.540;2024-03-22T09:23:50;22.90;72.30
40932;DHT22;36257;46.052;12.540;2024-03-22T09:26:15;23.20;73.60
40932;DHT22;36257;46.052;12.540;2024-03-22T09:28:41;23.20;70.80
40932;DHT22;36257;46.052;12.540;2024-03-22T09:31:07;23.20;72.00
40932;DHT22;36257;46.052;12.540;2024-03-22T09:33:34;23.40;70.30
40932;DHT22;36257;46.052;12.540;2024-03-22T09:36:00;23.50;71.80
40932;DHT22;36257;46.052;12.540;2024-03-22T09:38:26;23.60;71.30
40932;DHT22;36257;46.052;12.540;2024-03-22T09:40:51;23.70;69.80
40932;DHT22;36257;46.052;12.540;2024-03-22T09:43:20;23.80;69.40
40932;DHT22;36257;46.052;12.540;2024-03-22T09:45:50;24.00;71.00
40932;DHT22;36257;46.052;12.540;2024-03-22T09:48:18;24.20;69.40
40932;DHT22;36257;46.052;12.540;2024-03-22T09:50:47;24.20;69.50
40932;DHT22;36257;46.052;12.540;2024-03-22T09:53:13;24.20;68.60
40932;DHT22;36257;46.052;12.540;2024-03-22T09:55:45;24.40;67.40
40932;DHT22;36257;46.052;12.540;2024-03-22T09:58:10;24.40;67.40
40932;DHT22;36257;46.052;12.540;2024-03-22T10:00:36;24.20;68.90
40932;DHT22;36257;46.052;12.540;2024-03-22T10:03:04;24.30;68.80
40932;DHT22;36257;46.052;12.540;2024-03-22T10:05:31;24.30;68.50
40932;DHT22;36257;46.052;12.540;2024-03-22T10:07:57;24.10;64.50
40932;DHT22;36257;46.052;12.540;2024-03-22T10:10:23;24.10;70.10
40932;DHT22;36257;46.052;12.540;2024-03-22T10:12:49;24.20;69.00
40932;DHT22;36257;46.052;12.540;2024-03-22T10:15:14;24.30;68.70
40932;DHT22;36257;46.052;12.540;2024-03-22T10:17:42;24.50;66.80
40932;DHT22;36257;46.052;12.540;2024-03-22T10:20:08;24.60;68.70
40932;DHT22;36257;46.052;12.540;2024-03-22T10:22:50;24.60;67.80
40932;DHT22;36257;46.052;12.540;2024-03-22T10:25:20;24.50;66.30
40932;DHT22;36257;46.052;12.540;2024-03-22T10:27:47;24.30;66.80
40932;DHT22;36257;46.052;12.540;2024-03-22T10:30:16;24.50;67.60
40932;DHT22;36257;46.052;12.540;2024-03-22T10:32:44;24.60;66.80
40932;DHT22;36257;46.052;12.540;2024-03-22T10:35:14;24.50;63.50
40932;DHT22;36257;46.052;12.540;2024-03-22T10:37:40;24.50;65.80
40932;DHT22;36257;46.052;12.540;2024-03-22T10:40:06;24.50;66.20
40932;DHT22;36257;46.052;12.540;2024-03-22T10:42:37;24.60;67.00
40932;DHT22;36257;46.052;12.540;2024-03-22T10:45:04;24.20;65.90
40932;DHT22;36257;46.052;12.540;2024-03-22T10:47:31;24.20;67.40
40932;DHT22;36257;46.052;12.540;2024-03-22T10:50:07;24.20;61.00
40932;DHT22;36257;46.052;12.540;2024-03-22T10:53:01;24.00;62.60
40932;DHT22;36257;46.052;12.540;2024-03-22T10:55:34;23.70;64.70
40932;DHT22;36257;46.052;12.540;2024-03-22T10:58:01;23.50;66.40
40932;DHT22;36257;46.052;12.540;2024-03-22T11:00:30;23.80;67.60
40932;DHT22;36257;46.052;12.540;2024-03-22T11:02:56;24.00;67.10
40932;DHT22;36257;46.052;12.540;2024-03-22T11:05:22;24.20;64.70
40932;DHT22;36257;46.052;12.540;2024-03-22T11:07:57;24.00;64.20
40932;DHT22;36257;46.052;12.540;2024-03-22T11:10:28;23.60;60.90
40932;DHT22;36257;46.052;12.540;2024-03-22T11:12:55;23.30;61.70
40932;DHT22;36257;46.052;12.540;2024-03-22T11:15:22;23.60;63.00
40932;DHT22;36257;46.052;12.540;2024-03-22T11:17:48;24.00;66.40
40932;DHT22;36257;46.052;12.540;2024-03-22T11:20:15;24.10;64.80
40932;DHT22;36257;46.052;12.540;2024-03-22T11:22:41;24.00;62.00
40932;DHT22;36257;46.052;12.540;2024-03-22T11:25:06;23.80;59.30
40932;DHT22;36257;46.052;12.540;2024-03-22T11:27:32;23.70;59.30
40932;DHT22;36257;46.052;12.540;2024-03-22T11:29:58;23.80;61.80
40932;DHT22;36257;46.052;12.540;2024-03-22T11:32:24;23.70;60.00
40932;DHT22;36257;46.052;12.540;2024-03-22T11:34:50;23.60;60.20
40932;DHT22;36257;46.052;12.540;2024-03-22T11:37:15;23.70;60.60
40932;DHT22;36257;46.052;12.540;2024-03-22T11:39:41;24.30;62.20
40932;DHT22;36257;46.052;12.540;2024-03-22T11:42:07;24.80;60.30
40932;DHT22;36257;46.052;12.540;2024-03-22T11:44:35;24.40;60.00
40932;DHT22;36257;46.052;12.540;2024-03-22T11:47:02;24.30;57.80
40932;DHT22;36257;46.052;12.540;2024-03-22T11:49:28;24.20;54.80
40932;DHT22;36257;46.052;12.540;2024-03-22T11:51:56;24.20;57.70
40932;DHT22;36257;46.052;12.540;2024-03-22T11:54:22;24.10;59.20
40932;DHT22;36257;46.052;12.540;2024-03-22T11:56:49;24.20;59.10
40932;DHT22;36257;46.052;12.540;2024-03-22T11:59:14;24.10;60.10
40932;DHT22;36257;46.052;12.540;2024-03-22T12:01:43;24.40;58.80
40932;DHT22;36257;46.052;12.540;2024-03-22T12:04:09;24.20;59.00
40932;DHT22;36257;46.052;12.540;2024-03-22T12:06:44;23.90;56.50
40932;DHT22;36257;46.052;12.540;2024-03-22T12:09:11;23.90;58.30
40932;DHT22;36257;46.052;12.540;2024-03-22T12:11:38;24.00;57.70
40932;DHT22;36257;46.052;12.540;2024-03-22T12:14:04;24.20;58.90
40932;DHT22;36257;46.052;12.540;2024-03-22T12:16:29;24.20;58.90
40932;DHT22;36257;46.052;12.540;2024-03-22T12:18:55;24.10;56.30
40932;DHT22;36257;46.052;12.540;2024-03-22T12:21:20;24.00;56.40
40932;DHT22;36257;46.052;12.540;2024-03-22T12:23:46;24.00;55.90
40932;DHT22;36257;46.052;12.540;2024-03-22T12:26:12;23.70;57.10
40932;DHT22;36257;46.052;12.540;2024-03-22T12:28:37;24.10;62.00
40932;DHT22;36257;46.052;12.540;2024-03-22T12:31:04;24.30;58.40
40932;DHT22;36257;46.052;12.540;2024-03-22T12:33:30;24.30;58.40
40932;DHT22;36257;46.052;12.540;2024-03-22T12:35:56;23.90;57.10
40932;DHT22;36257;46.052;12.540;2024-03-22T12:38:21;23.30;58.70
40932;DHT22;36257;46.052;12.540;2024-03-22T12:40:47;23.60;60.00
40932;DHT22;36257;46.052;12.540;2024-03-22T12:43:13;23.90;58.10
40932;DHT22;36257;46.052;12.540;2024-03-22T12:45:38;23.70;59.30
40932;DHT22;36257;46.052;12.540;2024-03-22T12:48:04;23.50;60.20
40932;DHT22;36257;46.052;12.540;2024-03-22T12:50:30;23.20;60.70
40932;DHT22;36257;46.052;12.540;2024-03-22T12:52:56;23.30;61.80
40932;DHT22;36257;46.052;12.540;2024-03-22T12:55:22;23.10;62.40
40932;DHT22;36257;46.052;12.540;2024-03-22T12:57:48;23.30;63.80
40932;DHT22;36257;46.052;12.540;2024-03-22T13:00:14;23.60;62.80
40932;DHT22;36257;46.052;12.540;2024-03-22T13:02:44;23.60;63.10
40932;DHT22;36257;46.052;12.540;2024-03-22T13:05:10;23.70;64.40
40932;DHT22;36257;46.052;12.540;2024-03-22T13:07:36;24.10;64.90
40932;DHT22;36257;46.052;12.540;2024-03-22T13:10:03;24.30;63.00
40932;DHT22;36257;46.052;12.540;2024-03-22T13:12:29;24.50;65.10
40932;DHT22;36257;46.052;12.540;2024-03-22T13:14:57;24.60;63.80
40932;DHT22;36257;46.052;12.540;2024-03-22T13:17:22;24.50;63.50
40932;DHT22;36257;46.052;12.540;2024-03-22T13:19:49;24.00;63.00
40932;DHT22;36257;46.052;12.540;2024-03-22T13:22:14;23.70;63.60
40932;DHT22;36257;46.052;12.540;2024-03-22T13:24:46;23.60;64.90
40932;DHT22;36257;46.052;12.540;2024-03-22T13:27:13;23.80;64.40
40932;DHT22;36257;46.052;12.540;2024-03-22T13:29:39;23.60;65.30
40932;DHT22;36257;46.052;12.540;2024-03-22T13:32:05;24.00;65.90
40932;DHT22;36257;46.052;12.540;2024-03-22T13:34:36;23.90;62.80
40932;DHT22;36257;46.052;12.540;2024-03-22T13:37:03;23.80;63.80
40932;DHT22;36257;46.052;12.540;2024-03-22T13:39:28;23.60;62.60
40932;DHT22;36257;46.052;12.540;2024-03-22T13:41:57;23.50;63.10
40932;DHT22;36257;46.052;12.540;2024-03-22T13:44:23;23.60;63.30
40932;DHT22;36257;46.052;12.540;2024-03-22T13:46:52;23.30;63.20
40932;DHT22;36257;46.052;12.540;2024-03-22T13:49:19;23.10;62.60
40932;DHT22;36257;46.052;12.540;2024-03-22T13:51:46;23.00;63.80
40932;DHT22;36257;46.052;12.540;2024-03-22T13:54:13;23.00;64.30
40932;DHT22;36257;46.052;12.540;2024-03-22T13:56:39;23.00;62.30
40932;DHT22;36257;46.052;12.540;2024-03-22T13:59:05;22.80;62.30
40932;DHT22;36257;46.052;12.540;2024-03-22T14:01:32;22.40;62.30
40932;DHT22;36257;46.052;12.540;2024-03-22T14:03:58;22.30;64.50
40932;DHT22;36257;46.052;12.540;2024-03-22T14:06:23;22.20;63.10
40932;DHT22;36257;46.052;12.540;2024-03-22T14:08:49;22.10;63.70
40932;DHT22;36257;46.052;12.540;2024-03-22T14:11:15;22.10;65.30
40932;DHT22;36257;46.052;12.540;2024-03-22T14:13:40;22.10;65.50
40932;DHT22;36257;46.052;12.540;2024-03-22T14:16:06;22.20;65.00
40932;DHT22;36257;46.052;12.540;2024-03-22T14:18:33;22.00;63.40
40932;DHT22;36257;46.052;12.540;2024-03-22T14:21:01;21.70;64.30
40932;DHT22;36257;46.052;12.540;2024-03-22T14:23:27;21.50;65.00
40932;DHT22;36257;46.052;12.540;2024-03-22T14:25:54;21.40;64.70
40932;DHT22;36257;46.052;12.540;2024-03-22T14:28:20;21.30;65.50
40932;DHT22;36257;46.052;12.540;2024-03-22T14:30:47;21.20;66.60
40932;DHT22;36257;46.052;12.540;2024-03-22T14:33:12;21.20;67.60
40932;DHT22;36257;46.052;12.540;2024-03-22T14:35:38;21.30;67.00
40932;DHT22;36257;46.052;12.540;2024-03-22T14:38:04;21.20;64.60
40932;DHT22;36257;46.052;12.540;2024-03-22T14:40:29;21.10;67.00
40932;DHT22;36257;46.052;12.540;2024-03-22T14:42:57;21.10;65.50
40932;DHT22;36257;46.052;12.540;2024-03-22T14:45:22;21.10;65.30
40932;DHT22;36257;46.052;12.540;2024-03-22T14:47:48;21.00;66.30
40932;DHT22;36257;46.052;12.540;2024-03-22T14:50:13;20.90;66.10
40932;DHT22;36257;46.052;12.540;2024-03-22T14:52:39;20.80;66.10
40932;DHT22;36257;46.052;12.540;2024-03-22T14:55:05;20.70;67.20
40932;DHT22;36257;46.052;12.540;2024-03-22T14:57:31;20.70;66.50
40932;DHT22;36257;46.052;12.540;2024-03-22T14:59:57;20.70;66.80
40932;DHT22;36257;46.052;12.540;2024-03-22T15:02:23;20.70;67.80
40932;DHT22;36257;46.052;12.540;2024-03-22T15:04:48;20.60;68.30
40932;DHT22;36257;46.052;12.540;2024-03-22T15:07:14;20.50;67.20
40932;DHT22;36257;46.052;12.540;2024-03-22T15:09:41;20.50;66.90
40932;DHT22;36257;46.052;12.540;2024-03-22T15:12:07;20.40;67.70